Time;durP1;ratioP1;P1;durP2;ratioP2;P2;SDS_P1;SDS_P2;PMS_P1;PMS_P2;Temp;Humidity;BMP_temperature;BMP_pressure;BME280_temperature;BME280_humidity;BME280_pressure;Samples;Min_cycle;Max_cycle;Signal;HPM_P1;HPM_P2
2022/05/17 06:05:10;;;;;;;17.05;2.20;;;18.00;56.00;;;;;;5027484;28;20477;-68
2022/05/17 06:07:37;;;;;;;7.95;1.77;;;18.20;57.60;;;;;;5015690;28;20073;-68
2022/05/17 06:10:05;;;;;;;8.18;1.77;;;18.20;57.30;;;;;;5007378;28;20041;-68
2022/05/17 06:12:33;;;;;;;4.43;1.40;;;18.20;56.90;;;;;;5007613;28;20092;-69
2022/05/17 06:15:00;;;;;;;10.00;1.88;;;18.20;57.30;;;;;;4991662;28;20023;-68
2022/05/17 06:17:28;;;;;;;6.40;1.38;;;18.10;57.10;;;;;;5007521;28;20499;-69
2022/05/17 06:19:56;;;;;;;5.38;1.33;;;18.20;56.40;;;;;;4991506;28;20034;-68
2022/05/17 06:22:23;;;;;;;6.70;1.50;;;18.20;56.10;;;;;;5007209;28;20072;-68
2022/05/17 06:24:51;;;;;;;4.20;1.33;;;18.20;56.70;;;;;;5005468;28;20518;-63
2022/05/17 06:27:18;;;;;;;8.23;1.40;;;18.20;56.70;;;;;;5000054;28;20689;-65
2022/05/17 06:29:45;;;;;;;5.82;1.67;;;18.20;56.10;;;;;;5005066;28;20117;-64
2022/05/17 06:32:13;;;;;;;6.25;1.40;;;18.20;56.20;;;;;;5005055;28;20018;-64
2022/05/17 06:34:41;;;;;;;3.78;1.40;;;18.10;56.60;;;;;;5004250;28;20058;-64
2022/05/17 06:37:08;;;;;;;4.55;1.35;;;18.20;56.90;;;;;;5004877;28;20508;-64
2022/05/17 06:39:36;;;;;;;4.13;1.33;;;18.10;56.70;;;;;;5004924;28;20144;-65
2022/05/17 06:42:03;;;;;;;2.83;1.23;;;18.10;56.10;;;;;;5005385;28;20101;-64
2022/05/17 06:44:31;;;;;;;7.30;1.48;;;18.10;55.00;;;;;;5002001;28;20490;-65
2022/05/17 06:47:01;;;;;;;4.97;2.00;;;18.10;56.00;;;;;;5004138;28;20109;-65
2022/05/17 06:49:28;;;;;;;6.57;1.40;;;18.10;56.90;;;;;;5003058;28;20373;-65
2022/05/17 06:51:57;;;;;;;5.00;1.33;;;18.10;57.20;;;;;;5004372;28;20558;-65
2022/05/17 06:54:24;;;;;;;10.23;2.00;;;18.10;57.60;;;;;;5003483;28;20034;-65
2022/05/17 06:56:52;;;;;;;5.63;1.75;;;18.00;58.60;;;;;;5004259;28;20045;-64
2022/05/17 06:59:19;;;;;;;7.32;1.85;;;18.00;59.10;;;;;;5003053;28;20033;-63
2022/05/17 07:01:49;;;;;;;9.18;1.70;;;18.00;59.50;;;;;;5004062;28;20050;-63
2022/05/17 07:04:17;;;;;;;4.85;1.42;;;17.90;59.30;;;;;;5000483;28;20058;-66
2022/05/17 07:06:44;;;;;;;5.60;1.52;;;18.00;59.40;;;;;;4991522;28;20022;-66
2022/05/17 07:09:12;;;;;;;7.65;1.70;;;18.00;59.40;;;;;;4991486;28;20030;-64
2022/05/17 07:14:25;;;;;;;4.00;1.80;;;17.90;59.70;;;;;;4990391;28;20049;-65
2022/05/17 07:16:52;;;;;;;7.78;1.83;;;17.90;60.30;;;;;;4991213;28;20104;-64
2022/05/17 07:19:19;;;;;;;11.55;2.60;;;17.80;60.40;;;;;;4991335;28;20030;-64
2022/05/17 07:21:46;;;;;;;12.20;1.90;;;17.90;60.70;;;;;;4990527;28;20065;-65
2022/05/17 07:24:13;;;;;;;9.63;1.58;;;17.80;61.40;;;;;;4990830;28;20554;-64
2022/05/17 07:26:41;;;;;;;10.02;1.60;;;17.80;61.00;;;;;;4989020;28;20394;-65
2022/05/17 07:29:10;;;;;;;4.95;1.70;;;17.80;60.00;;;;;;4990094;28;20521;-65
2022/05/17 07:31:37;;;;;;;7.45;1.65;;;17.80;59.90;;;;;;4989177;28;20138;-66
2022/05/17 07:34:06;;;;;;;4.75;1.75;;;17.70;60.50;;;;;;4990723;28;20109;-65
2022/05/17 07:36:33;;;;;;;8.02;2.33;;;17.70;61.70;;;;;;4989806;28;20037;-65
2022/05/17 07:39:00;;;;;;;11.38;2.00;;;17.70;62.80;;;;;;4990923;28;20037;-65
2022/05/17 07:41:28;;;;;;;5.50;2.30;;;17.60;62.30;;;;;;4990494;28;20037;-65
2022/05/17 07:43:55;;;;;;;8.95;2.20;;;17.60;63.30;;;;;;4988881;28;20030;-65
2022/05/17 07:46:22;;;;;;;5.05;2.10;;;17.60;62.50;;;;;;4990812;28;20095;-65
2022/05/17 07:48:49;;;;;;;8.15;1.90;;;17.50;61.70;;;;;;4988951;28;20038;-65
2022/05/17 07:51:16;;;;;;;11.65;1.92;;;17.50;60.80;;;;;;4990844;28;20408;-66
2022/05/17 07:53:43;;;;;;;5.25;1.88;;;17.50;61.20;;;;;;4990407;28;20022;-65
2022/05/17 07:56:10;;;;;;;8.00;1.70;;;17.50;60.90;;;;;;4990162;28;20035;-65
2022/05/17 07:58:38;;;;;;;6.55;1.80;;;17.50;60.30;;;;;;4989884;28;20061;-66
2022/05/17 08:01:05;;;;;;;4.88;2.03;;;17.40;60.90;;;;;;4990072;28;20652;-66
2022/05/17 08:03:32;;;;;;;3.45;1.70;;;17.40;60.60;;;;;;4990125;28;20054;-66
2022/05/17 08:06:00;;;;;;;8.63;1.80;;;17.40;59.50;;;;;;4990340;28;20049;-67
2022/05/17 08:08:27;;;;;;;8.55;2.00;;;17.40;61.30;;;;;;4989925;28;20038;-64
2022/05/17 08:10:54;;;;;;;3.85;1.90;;;17.40;60.90;;;;;;4990023;28;20153;-65
2022/05/17 08:13:22;;;;;;;3.92;1.80;;;17.30;59.70;;;;;;4989851;28;20473;-66
2022/05/17 08:15:49;;;;;;;7.78;1.88;;;17.30;59.50;;;;;;4968633;28;20377;-64
2022/05/17 08:18:17;;;;;;;6.85;2.25;;;17.30;59.00;;;;;;4970596;28;20026;-65
2022/05/17 08:20:44;;;;;;;4.68;2.00;;;17.30;59.00;;;;;;4973573;28;20026;-72
2022/05/17 08:23:11;;;;;;;9.20;2.03;;;17.30;60.10;;;;;;4988761;28;20041;-66
2022/05/17 08:28:24;;;;;;;4.22;1.63;;;17.30;60.60;;;;;;4989840;28;20065;-65
2022/05/17 08:30:51;;;;;;;6.82;1.73;;;17.20;60.20;;;;;;4988045;28;20030;-65
2022/05/17 08:33:23;;;;;;;4.93;1.80;;;17.20;61.00;;;;;;4989748;28;20034;-66
2022/05/17 08:36:00;;;;;;;7.25;1.67;;;17.20;60.20;;;;;;4989830;28;20668;-66
2022/05/17 08:38:28;;;;;;;4.57;1.90;;;17.20;60.10;;;;;;4989600;28;20468;-65
2022/05/17 08:41:28;;;;;;;6.00;1.83;;;17.20;58.70;;;;;;4989098;28;20534;-66
2022/05/17 08:43:57;;;;;;;4.07;1.73;;;17.20;60.00;;;;;;4986588;28;20054;-66
2022/05/17 08:46:54;;;;;;;4.82;1.80;;;17.10;59.90;;;;;;4988839;28;20547;-66
2022/05/17 08:49:29;;;;;;;6.28;1.85;;;17.10;58.20;;;;;;4988370;28;20042;-67
2022/05/17 08:52:25;;;;;;;4.57;2.13;;;17.10;58.90;;;;;;4987857;28;20030;-65
2022/05/17 08:55:18;;;;;;;9.65;2.28;;;17.10;59.60;;;;;;4988102;28;20396;-65
2022/05/17 08:57:54;;;;;;;6.68;2.00;;;17.10;61.60;;;;;;4979160;28;20050;-66
2022/05/17 09:00:22;;;;;;;5.75;2.40;;;17.00;59.50;;;;;;4986996;28;20349;-66
2022/05/17 09:03:04;;;;;;;6.43;2.25;;;17.00;60.80;;;;;;4987349;28;20576;-66
2022/05/17 09:05:40;;;;;;;6.72;2.33;;;17.00;61.30;;;;;;4971437;28;20089;-67
2022/05/17 09:08:23;;;;;;;4.00;1.80;;;16.90;61.70;;;;;;4989261;28;20280;-67
2022/05/17 09:10:53;;;;;;;7.40;2.13;;;16.80;59.20;;;;;;4968459;28;20094;-66
2022/05/17 09:13:28;;;;;;;7.72;2.50;;;16.80;60.70;;;;;;4968606;28;20026;-67
2022/05/17 09:15:57;;;;;;;6.97;2.25;;;16.80;62.50;;;;;;4968500;28;20035;-66
2022/05/17 09:18:24;;;;;;;6.40;1.88;;;16.80;63.20;;;;;;4969917;28;20074;-67
2022/05/17 09:20:51;;;;;;;10.93;2.20;;;16.80;61.10;;;;;;4988511;28;20026;-67
2022/05/17 09:23:19;;;;;;;4.53;1.90;;;16.80;61.30;;;;;;4987913;28;20030;-67
2022/05/17 09:26:01;;;;;;;4.50;2.20;;;16.80;59.60;;;;;;4988265;28;20026;-67
2022/05/17 09:28:54;;;;;;;6.85;1.90;;;16.70;60.80;;;;;;4988644;28;20074;-67
2022/05/17 09:31:24;;;;;;;5.72;1.90;;;16.70;59.50;;;;;;4982698;28;20049;-67
2022/05/17 09:33:52;;;;;;;9.18;2.15;;;16.60;61.00;;;;;;4988777;28;20080;-67
2022/05/17 09:36:21;;;;;;;9.13;2.35;;;16.60;62.60;;;;;;4988850;28;20058;-65
2022/05/17 09:38:49;;;;;;;7.63;2.20;;;16.60;63.30;;;;;;4988841;28;20053;-66
2022/05/17 09:41:19;;;;;;;5.47;2.30;;;16.50;62.00;;;;;;4987657;28;20026;-66
2022/05/17 09:43:52;;;;;;;8.63;2.50;;;16.50;63.00;;;;;;4985527;28;20042;-64
2022/05/17 09:46:28;;;;;;;5.57;2.40;;;16.50;64.30;;;;;;4988034;28;20037;-66
2022/05/17 09:54:47;;;;;;;6.03;2.38;;;16.50;60.40;;;;;;4987402;28;20129;-64
2022/05/17 09:57:18;;;;;;;8.43;2.45;;;16.50;62.70;;;;;;4986685;28;20261;-66
2022/05/17 09:59:46;;;;;;;10.43;2.60;;;16.50;62.00;;;;;;4987074;28;20436;-66
2022/05/17 10:02:35;;;;;;;5.88;2.67;;;16.40;62.00;;;;;;4971445;28;20062;-66
2022/05/17 10:05:14;;;;;;;7.90;2.72;;;16.40;62.30;;;;;;4986882;28;20060;-66
2022/05/17 10:07:43;;;;;;;4.90;2.67;;;16.30;62.80;;;;;;4987157;28;20658;-66
2022/05/17 10:10:25;;;;;;;9.90;2.60;;;16.30;62.00;;;;;;4951974;28;20047;-67
2022/05/17 10:12:52;;;;;;;5.53;2.63;;;16.20;62.60;;;;;;4968506;28;20045;-66
2022/05/17 10:15:19;;;;;;;6.38;2.95;;;16.20;62.10;;;;;;4953715;28;20109;-65
2022/05/17 10:17:51;;;;;;;6.63;2.70;;;16.20;63.90;;;;;;4967798;28;20031;-65
2022/05/17 10:20:32;;;;;;;8.50;3.83;;;16.20;63.00;;;;;;4968754;28;20063;-65
2022/05/17 10:23:10;;;;;;;8.60;2.95;;;16.20;64.50;;;;;;4988314;28;20050;-65
2022/05/17 10:26:02;;;;;;;7.13;2.88;;;16.20;63.00;;;;;;4986513;28;20183;-67
2022/05/17 10:28:44;;;;;;;7.43;3.33;;;16.10;63.60;;;;;;4971595;28;20030;-66
2022/05/17 10:31:31;;;;;;;6.75;2.80;;;16.10;64.20;;;;;;4987341;28;20038;-67
2022/05/17 10:34:25;;;;;;;10.00;3.15;;;16.00;64.10;;;;;;4971010;28;20035;-67
2022/05/17 10:36:55;;;;;;;4.82;2.80;;;16.00;64.30;;;;;;4966305;28;20058;-66
2022/05/17 10:39:38;;;;;;;13.30;3.77;;;15.90;63.60;;;;;;4971806;28;20042;-66
2022/05/17 10:42:06;;;;;;;6.47;3.53;;;15.80;63.60;;;;;;4976428;28;20304;-66
2022/05/17 10:44:47;;;;;;;7.18;3.10;;;15.80;64.70;;;;;;4988744;28;20049;-67
2022/05/17 10:47:22;;;;;;;5.55;2.53;;;15.80;65.00;;;;;;4990700;28;20026;-68
2022/05/17 10:50:28;;;;;;;5.68;2.53;;;15.70;64.20;;;;;;4990473;28;20030;-66
2022/05/17 10:53:10;;;;;;;10.55;2.75;;;15.70;64.50;;;;;;4991235;28;20022;-67
2022/05/17 10:55:55;;;;;;;6.93;2.60;;;15.70;64.20;;;;;;4992088;28;20035;-67
2022/05/17 10:58:59;;;;;;;3.90;2.33;;;15.70;64.30;;;;;;4992338;28;20037;-67
2022/05/17 11:01:32;;;;;;;8.93;3.08;;;15.70;64.60;;;;;;4992095;28;20030;-66
2022/05/17 11:04:26;;;;;;;5.82;2.70;;;15.70;65.40;;;;;;4990564;28;20050;-67
2022/05/17 11:07:03;;;;;;;4.55;2.13;;;15.60;65.00;;;;;;4991827;28;20061;-67
2022/05/17 11:10:05;;;;;;;5.50;2.72;;;15.60;65.10;;;;;;4992013;28;20029;-68
2022/05/17 11:12:40;;;;;;;4.07;2.03;;;15.50;64.20;;;;;;4922739;28;20059;-67
2022/05/17 11:15:13;;;;;;;6.03;2.35;;;15.60;64.10;;;;;;4991985;28;20046;-68
2022/05/17 11:17:54;;;;;;;4.82;1.83;;;15.60;63.10;;;;;;4970787;28;20408;-67
2022/05/17 11:20:38;;;;;;;3.38;1.70;;;15.60;62.70;;;;;;4972669;28;20078;-68
2022/05/17 11:23:31;;;;;;;3.33;1.80;;;15.60;62.50;;;;;;4992054;28;20041;-67
2022/05/17 11:26:22;;;;;;;6.28;1.80;;;15.50;62.70;;;;;;4991230;28;20030;-66
2022/05/17 11:29:05;;;;;;;5.45;1.95;;;15.50;63.30;;;;;;4991686;28;20109;-67
2022/05/17 11:31:58;;;;;;;5.32;1.90;;;15.50;62.90;;;;;;4974210;28;20482;-66
2022/05/17 11:34:35;;;;;;;6.85;1.77;;;15.50;64.10;;;;;;4991366;28;20042;-67
2022/05/17 11:37:05;;;;;;;3.95;2.00;;;15.40;63.90;;;;;;4991082;28;20096;-67
2022/05/17 11:39:39;;;;;;;4.00;1.92;;;15.40;63.30;;;;;;4991506;28;20026;-66
2022/05/17 11:42:27;;;;;;;4.72;1.90;;;15.40;64.40;;;;;;4991697;28;20062;-67
2022/05/17 11:44:54;;;;;;;5.15;1.83;;;15.30;64.30;;;;;;4988852;28;20125;-67
2022/05/17 11:47:38;;;;;;;7.80;1.95;;;15.30;64.10;;;;;;4973823;28;20030;-67
2022/05/17 11:50:21;;;;;;;4.03;1.83;;;15.30;63.90;;;;;;4991141;28;20030;-66
2022/05/17 11:53:06;;;;;;;3.55;1.88;;;15.30;63.30;;;;;;4991414;28;20574;-67
2022/05/17 11:55:40;;;;;;;7.43;2.10;;;15.30;63.70;;;;;;4989610;28;20037;-67
2022/05/17 11:58:09;;;;;;;3.95;1.90;;;15.30;63.40;;;;;;4989601;28;20030;-67
2022/05/17 12:00:41;;;;;;;3.25;1.58;;;15.30;63.20;;;;;;4989829;28;20041;-67
2022/05/17 12:03:41;;;;;;;5.13;1.60;;;15.30;62.90;;;;;;4991174;28;20096;-68
2022/05/17 12:06:10;;;;;;;5.40;2.03;;;15.20;62.80;;;;;;4980049;28;20080;-67
2022/05/17 12:08:43;;;;;;;5.10;1.85;;;15.20;62.90;;;;;;4993741;28;20022;-67
2022/05/17 12:11:13;;;;;;;2.60;1.75;;;15.30;63.10;;;;;;4993936;28;20553;-67
2022/05/17 12:14:01;;;;;;;6.22;2.28;;;15.30;63.30;;;;;;4993809;28;20030;-67
2022/05/17 12:16:32;;;;;;;5.07;2.00;;;15.30;63.40;;;;;;4992247;28;20023;-67
2022/05/17 12:19:16;;;;;;;6.55;1.95;;;15.20;63.60;;;;;;4993751;28;20026;-67
2022/05/17 12:21:49;;;;;;;4.85;1.83;;;15.20;64.30;;;;;;4992410;28;20388;-67
2022/05/17 12:24:57;;;;;;;3.45;1.70;;;15.20;65.10;;;;;;4993154;28;20030;-67
2022/05/17 12:27:27;;;;;;;2.03;1.50;;;15.20;66.00;;;;;;4992634;28;20497;-67
2022/05/17 12:32:51;;;;;;;6.20;2.10;;;15.10;64.30;;;;;;4993317;28;20042;-68
2022/05/17 12:35:28;;;;;;;3.67;1.70;;;15.10;65.20;;;;;;4993102;28;20030;-67
2022/05/17 12:37:56;;;;;;;4.65;1.83;;;15.10;64.90;;;;;;4993309;28;20492;-67
2022/05/17 12:43:24;;;;;;;4.78;1.75;;;15.00;65.90;;;;;;4992740;28;20046;-67
2022/05/17 12:45:51;;;;;;;5.25;2.13;;;15.00;64.90;;;;;;4977464;28;20026;-67
2022/05/17 12:48:29;;;;;;;5.97;2.00;;;14.90;64.40;;;;;;4992052;28;20030;-67
2022/05/17 12:51:04;;;;;;;4.85;2.38;;;14.90;64.40;;;;;;4991456;28;20026;-67
2022/05/17 12:53:48;;;;;;;3.58;2.15;;;14.90;64.10;;;;;;4976418;28;20034;-67
2022/05/17 12:56:22;;;;;;;4.65;1.85;;;14.90;63.30;;;;;;4976514;28;20072;-67
2022/05/17 12:58:53;;;;;;;3.40;1.58;;;14.90;64.10;;;;;;4993127;28;20053;-67
2022/05/17 13:01:33;;;;;;;3.25;1.88;;;14.90;63.60;;;;;;4993046;28;20042;-67
2022/05/17 13:04:14;;;;;;;3.35;1.75;;;14.90;63.20;;;;;;4992254;28;20054;-67
2022/05/17 13:06:46;;;;;;;4.80;1.75;;;14.90;63.50;;;;;;4992765;28;20050;-67
2022/05/17 13:09:25;;;;;;;3.80;1.80;;;14.90;63.20;;;;;;4991293;28;20022;-67
2022/05/17 13:11:53;;;;;;;2.70;1.60;;;14.90;63.30;;;;;;4993101;28;20034;-67
2022/05/17 13:14:31;;;;;;;5.97;2.05;;;14.90;63.30;;;;;;4991762;28;20018;-67
2022/05/17 13:17:10;;;;;;;4.90;1.80;;;14.80;63.40;;;;;;4991331;28;20038;-66
2022/05/17 13:19:38;;;;;;;4.43;1.70;;;14.80;63.50;;;;;;4992800;28;20053;-67
2022/05/17 13:22:05;;;;;;;4.57;1.98;;;14.80;64.10;;;;;;4975535;28;20030;-67
2022/05/17 13:24:35;;;;;;;6.30;1.90;;;14.70;64.90;;;;;;4990979;28;20097;-67
2022/05/17 13:27:24;;;;;;;3.65;1.80;;;14.70;64.80;;;;;;4992875;28;20145;-67
2022/05/17 13:30:03;;;;;;;6.43;1.73;;;14.70;66.30;;;;;;4992855;28;20073;-67
2022/05/17 13:32:41;;;;;;;4.97;1.70;;;14.60;66.20;;;;;;4991054;28;20073;-67
2022/05/17 13:35:11;;;;;;;7.00;1.98;;;14.50;67.10;;;;;;4974659;28;20033;-67
2022/05/17 13:37:59;;;;;;;6.95;1.98;;;14.40;67.50;;;;;;4991831;28;20025;-67
2022/05/17 13:40:53;;;;;;;6.40;2.13;;;14.30;68.30;;;;;;4992756;28;20053;-67
2022/05/17 13:43:36;;;;;;;5.07;1.98;;;14.30;69.10;;;;;;4990836;28;20035;-67
2022/05/17 13:46:18;;;;;;;3.22;1.52;;;14.30;68.80;;;;;;4992056;28;20428;-68
2022/05/17 13:48:48;;;;;;;6.22;2.20;;;14.20;68.60;;;;;;4992188;28;20057;-66
2022/05/17 13:51:28;;;;;;;3.95;1.85;;;14.20;69.30;;;;;;4992290;28;20666;-67
2022/05/17 13:54:06;;;;;;;3.80;1.80;;;14.20;69.70;;;;;;4990297;28;20042;-67
2022/05/17 13:56:38;;;;;;;5.22;1.95;;;14.20;70.40;;;;;;4972781;28;20389;-66
2022/05/17 13:59:06;;;;;;;5.43;1.90;;;14.20;70.70;;;;;;4955738;28;20473;-67
2022/05/17 14:01:38;;;;;;;4.10;1.90;;;14.20;70.40;;;;;;4974633;28;20030;-67
2022/05/17 14:04:06;;;;;;;4.53;1.98;;;14.20;70.50;;;;;;4991335;28;20173;-67
2022/05/17 14:06:44;;;;;;;10.48;2.22;;;14.20;70.30;;;;;;4991032;28;20097;-67
2022/05/17 14:11:59;;;;;;;5.05;1.58;;;14.20;69.80;;;;;;4990831;28;20037;-67
2022/05/17 14:14:27;;;;;;;5.75;1.77;;;14.20;69.40;;;;;;4991710;28;20452;-67
2022/05/17 14:17:00;;;;;;;4.88;1.60;;;14.20;69.20;;;;;;4995692;28;20101;-66
2022/05/17 14:19:29;;;;;;;5.22;1.95;;;14.20;68.20;;;;;;4995591;28;20026;-68
2022/05/17 14:21:59;;;;;;;4.63;1.58;;;14.20;67.20;;;;;;4994751;28;20022;-68
2022/05/17 14:24:26;;;;;;;;;;;14.30;66.80;;;;;;4994510;28;20045;-67
2022/05/17 14:26:54;;;;;;;5.97;2.00;;;14.30;67.70;;;;;;4995156;28;19905;-67
2022/05/17 14:29:22;;;;;;;4.30;1.70;;;14.20;67.80;;;;;;4995345;28;20029;-67
2022/05/17 14:31:50;;;;;;;4.28;1.85;;;14.20;67.80;;;;;;4995941;28;20341;-67
2022/05/17 14:34:19;;;;;;;5.95;1.80;;;14.20;67.80;;;;;;4995917;28;20093;-67
2022/05/17 14:36:46;;;;;;;6.18;1.65;;;14.10;68.60;;;;;;4994159;28;20156;-67
2022/05/17 14:39:13;;;;;;;4.43;1.60;;;14.00;69.10;;;;;;4994397;28;20030;-67
2022/05/17 14:41:44;;;;;;;3.78;1.63;;;14.00;69.80;;;;;;4995317;28;20431;-67
2022/05/17 14:44:12;;;;;;;5.10;1.88;;;13.90;70.00;;;;;;4995549;28;20038;-67
2022/05/17 14:46:39;;;;;;;6.15;1.90;;;14.00;70.90;;;;;;4995775;28;20034;-67
2022/05/17 14:49:07;;;;;;;5.50;1.95;;;13.80;71.30;;;;;;4993587;28;20029;-67
2022/05/17 14:51:34;;;;;;;2.80;1.75;;;13.90;71.80;;;;;;4974908;28;20030;-66
2022/05/17 14:54:01;;;;;;;10.07;1.95;;;13.80;71.50;;;;;;4976236;28;20022;-66
2022/05/17 14:56:29;;;;;;;4.32;1.80;;;13.80;71.10;;;;;;4975865;28;20150;-67
2022/05/17 14:58:56;;;;;;;3.03;1.70;;;13.80;70.70;;;;;;4976923;28;20026;-67
2022/05/17 15:01:23;;;;;;;5.75;1.70;;;13.90;70.30;;;;;;4995163;28;20034;-67
2022/05/17 15:03:56;;;;;;;4.55;1.92;;;13.90;69.70;;;;;;4993629;28;20130;-66
2022/05/17 15:06:24;;;;;;;4.15;1.85;;;13.90;68.80;;;;;;4995062;28;20031;-67
2022/05/17 15:08:54;;;;;;;5.68;1.90;;;14.00;69.00;;;;;;4994905;28;20030;-67
2022/05/17 15:11:22;;;;;;;4.85;1.80;;;14.00;68.70;;;;;;4995063;28;20365;-67
2022/05/17 15:13:49;;;;;;;3.90;2.15;;;14.00;69.10;;;;;;4994303;28;20038;-66
2022/05/17 15:16:20;;;;;;;6.82;1.75;;;14.00;69.50;;;;;;4995117;28;20027;-67
2022/05/17 15:18:49;;;;;;;3.35;1.63;;;13.90;69.50;;;;;;4993669;28;20112;-67
2022/05/17 15:21:16;;;;;;;4.55;1.75;;;14.00;69.60;;;;;;4977776;28;20026;-67
2022/05/17 15:23:45;;;;;;;4.38;1.77;;;14.00;70.10;;;;;;4994616;28;20041;-67
2022/05/17 15:26:12;;;;;;;5.80;1.73;;;14.00;70.00;;;;;;4993363;28;20023;-67
2022/05/17 15:28:41;;;;;;;4.45;1.80;;;13.90;70.20;;;;;;4993653;28;20026;-67
2022/05/17 15:31:09;;;;;;;6.35;1.92;;;13.90;71.00;;;;;;4994621;28;20129;-67
2022/05/17 15:33:38;;;;;;;5.90;1.90;;;13.80;69.90;;;;;;4994475;28;20035;-67
2022/05/17 15:36:05;;;;;;;6.85;2.05;;;13.90;70.00;;;;;;4993600;28;20018;-67
2022/05/17 15:38:35;;;;;;;7.80;2.15;;;13.80;69.30;;;;;;4992517;28;20315;-67
2022/05/17 15:41:03;;;;;;;3.65;1.70;;;13.80;69.40;;;;;;4994221;28;20488;-67
2022/05/17 15:43:31;;;;;;;4.68;1.80;;;13.80;70.00;;;;;;4994449;28;20031;-67
2022/05/17 15:46:03;;;;;;;4.07;1.80;;;13.70;70.10;;;;;;4994292;28;20103;-67
2022/05/17 15:54:02;;;;;;;4.55;2.00;;;13.70;71.80;;;;;;4960470;28;20033;-67
2022/05/17 15:56:29;;;;;;;5.60;1.80;;;13.70;71.60;;;;;;4985488;28;20030;-67
2022/05/17 15:58:56;;;;;;;8.35;1.90;;;13.70;71.50;;;;;;4993913;28;20023;-67
2022/05/17 16:01:25;;;;;;;4.68;1.85;;;13.60;71.70;;;;;;4993455;28;20036;-67
2022/05/17 16:03:54;;;;;;;4.25;1.73;;;13.60;72.10;;;;;;4960594;28;20054;-67
2022/05/17 16:06:21;;;;;;;4.90;1.83;;;13.60;72.10;;;;;;4992201;28;20501;-67
2022/05/17 16:08:49;;;;;;;6.53;1.75;;;13.50;73.40;;;;;;4993905;28;20389;-67
2022/05/17 16:14:02;;;;;;;5.15;1.70;;;13.30;72.70;;;;;;4993777;28;20322;-67
2022/05/17 16:16:29;;;;;;;4.47;2.08;;;13.20;72.90;;;;;;4994257;28;20023;-67
2022/05/17 16:19:00;;;;;;;3.83;1.90;;;13.20;73.30;;;;;;4993986;28;20400;-66
2022/05/17 16:21:27;;;;;;;5.85;2.25;;;13.20;73.00;;;;;;4973451;28;20032;-67
2022/05/17 16:23:54;;;;;;;4.80;1.80;;;13.10;73.80;;;;;;4972994;28;20077;-67
2022/05/17 16:26:21;;;;;;;6.93;2.00;;;13.10;74.00;;;;;;4984013;28;20026;-68
2022/05/17 16:28:49;;;;;;;7.03;2.05;;;13.10;73.90;;;;;;4993426;28;20477;-67
2022/05/17 16:31:16;;;;;;;3.88;1.92;;;13.10;73.90;;;;;;4993345;28;20548;-67
2022/05/17 16:33:45;;;;;;;4.82;1.95;;;13.10;73.60;;;;;;4976266;28;20432;-67
2022/05/17 16:36:12;;;;;;;5.97;1.85;;;13.00;73.70;;;;;;4993439;28;20034;-67
2022/05/17 16:38:39;;;;;;;6.25;2.35;;;13.10;74.10;;;;;;4991328;28;20121;-67
2022/05/17 16:41:12;;;;;;;5.53;2.00;;;13.00;72.70;;;;;;4993106;28;20469;-67
2022/05/17 16:43:41;;;;;;;4.30;1.80;;;12.90;73.00;;;;;;4993601;28;20045;-67
2022/05/17 16:46:09;;;;;;;5.47;2.00;;;12.90;72.70;;;;;;4993293;28;20030;-67
2022/05/17 16:48:37;;;;;;;5.25;1.77;;;12.90;73.10;;;;;;4976398;28;20104;-67
2022/05/17 16:51:04;;;;;;;6.20;1.80;;;12.90;73.40;;;;;;4991287;28;20068;-67
2022/05/17 16:53:31;;;;;;;5.97;1.70;;;12.90;73.50;;;;;;4991813;28;20440;-67
2022/05/17 16:55:59;;;;;;;3.75;1.90;;;12.80;73.90;;;;;;4993065;28;20389;-67
2022/05/17 16:58:26;;;;;;;6.47;2.22;;;12.80;74.60;;;;;;4993860;28;20034;-67
2022/05/17 17:00:55;;;;;;;3.67;1.88;;;12.80;74.30;;;;;;4983099;28;20026;-68
2022/05/17 17:03:22;;;;;;;7.30;2.38;;;12.80;74.50;;;;;;4956811;28;20072;-67
2022/05/17 17:05:49;;;;;;;7.22;1.90;;;12.80;74.90;;;;;;4972174;28;20122;-67
2022/05/17 17:08:17;;;;;;;4.25;1.80;;;12.80;75.10;;;;;;4973673;28;20027;-67
2022/05/17 17:10:46;;;;;;;3.95;1.63;;;12.70;75.20;;;;;;4984584;28;20030;-67
2022/05/17 17:13:15;;;;;;;4.25;1.50;;;12.70;75.30;;;;;;4992161;28;20101;-67
2022/05/17 17:15:43;;;;;;;3.65;1.67;;;12.60;75.70;;;;;;4993065;28;20061;-67
2022/05/17 17:18:10;;;;;;;4.95;1.55;;;12.50;76.00;;;;;;4991481;28;20014;-68
2022/05/17 17:20:37;;;;;;;3.83;1.80;;;12.50;75.90;;;;;;4991196;28;20124;-67
2022/05/17 17:23:04;;;;;;;8.55;1.63;;;12.50;76.30;;;;;;4992859;28;20035;-67
2022/05/17 17:25:34;;;;;;;4.45;2.00;;;12.50;76.20;;;;;;4992773;28;20042;-67
2022/05/17 17:28:01;;;;;;;8.40;2.20;;;12.60;76.50;;;;;;4992731;28;20073;-67
2022/05/17 17:30:30;;;;;;;6.28;1.98;;;12.50;76.40;;;;;;4992495;28;20045;-67
2022/05/17 17:38:29;;;;;;;4.90;1.92;;;12.40;77.00;;;;;;4991878;28;20036;-67
2022/05/17 17:40:56;;;;;;;8.23;2.50;;;12.30;77.20;;;;;;4991060;28;20041;-67
2022/05/17 17:43:23;;;;;;;7.75;2.10;;;12.20;77.40;;;;;;4991178;28;20069;-66
2022/05/17 17:45:56;;;;;;;8.25;2.08;;;12.20;77.40;;;;;;4991653;28;20018;-67
2022/05/17 17:48:24;;;;;;;6.22;1.90;;;12.10;77.40;;;;;;4970930;28;20252;-67
2022/05/17 17:50:51;;;;;;;7.40;2.10;;;12.10;77.50;;;;;;4988075;28;20507;-67
2022/05/17 17:53:18;;;;;;;8.85;2.28;;;12.00;77.30;;;;;;4992574;28;20050;-67
2022/05/17 17:55:47;;;;;;;4.75;2.13;;;12.00;77.80;;;;;;4992299;28;20026;-67
2022/05/17 17:58:18;;;;;;;6.97;1.92;;;12.00;77.60;;;;;;4991925;28;20026;-67
2022/05/17 18:00:45;;;;;;;;;;;12.00;77.80;;;;;;4990857;28;20042;-67
2022/05/17 18:03:14;;;;;;;7.53;1.88;;;12.10;78.20;;;;;;4990514;28;19922;-67
2022/05/17 18:05:41;;;;;;;7.35;1.95;;;12.10;77.90;;;;;;4992474;28;20473;-67
2022/05/17 18:08:09;;;;;;;5.18;1.90;;;12.10;78.00;;;;;;4991008;28;20025;-67
2022/05/17 18:10:36;;;;;;;5.55;1.73;;;12.20;77.60;;;;;;4990599;28;20053;-67
2022/05/17 18:13:04;;;;;;;8.30;1.85;;;12.20;77.00;;;;;;4974986;28;20600;-67
2022/05/17 18:15:31;;;;;;;8.90;2.00;;;12.20;77.20;;;;;;4992300;28;20397;-67
2022/05/17 18:17:58;;;;;;;5.05;2.05;;;12.20;77.10;;;;;;4990960;28;20022;-67
2022/05/17 18:20:27;;;;;;;3.47;1.60;;;12.20;77.10;;;;;;4992026;28;20030;-67
2022/05/17 18:22:55;;;;;;;6.65;2.10;;;12.20;77.10;;;;;;4991548;28;20030;-67
2022/05/17 18:25:22;;;;;;;5.05;1.80;;;12.20;77.90;;;;;;4990797;28;20255;-67
2022/05/17 18:27:51;;;;;;;7.82;2.08;;;12.20;77.00;;;;;;4992299;28;20034;-67
2022/05/17 18:30:20;;;;;;;5.78;2.10;;;12.00;77.40;;;;;;4974802;28;20029;-67
2022/05/17 18:32:50;;;;;;;8.68;2.50;;;12.00;77.80;;;;;;4991004;28;20022;-67
2022/05/17 18:35:20;;;;;;;7.55;2.60;;;12.10;78.90;;;;;;4991358;28;20033;-67
2022/05/17 18:37:48;;;;;;;7.32;1.90;;;12.00;78.00;;;;;;4974841;28;20085;-67
2022/05/17 18:40:17;;;;;;;11.30;2.17;;;11.90;78.10;;;;;;4989826;28;20065;-67
2022/05/17 18:42:45;;;;;;;6.72;1.98;;;11.80;78.20;;;;;;4991877;28;20038;-67
2022/05/17 18:45:13;;;;;;;5.57;1.88;;;11.70;78.50;;;;;;4991979;28;20054;-67
2022/05/17 18:47:45;;;;;;;8.00;2.22;;;11.70;78.90;;;;;;4991308;28;20031;-67
2022/05/17 18:50:18;;;;;;;4.38;2.00;;;11.70;78.80;;;;;;4989363;28;20117;-67
2022/05/17 18:52:46;;;;;;;5.20;1.70;;;11.70;78.50;;;;;;4990245;28;20037;-67
2022/05/17 18:55:27;;;;;;;6.95;1.80;;;11.70;78.60;;;;;;4979150;28;20030;-67
2022/05/17 18:57:54;;;;;;;;;;;11.70;78.70;;;;;;4991525;28;20023;-67
2022/05/17 19:00:41;;;;;;;3.90;1.70;;;11.70;78.90;;;;;;4992448;28;19906;-67
2022/05/17 19:03:11;;;;;;;6.03;1.90;;;11.60;79.40;;;;;;4993358;28;20097;-68
2022/05/17 19:05:41;;;;;;;6.63;1.88;;;11.60;79.30;;;;;;4994071;28;20029;-68
2022/05/17 19:13:42;;;;;;;5.25;1.83;;;11.50;79.80;;;;;;4993628;28;20081;-68
2022/05/17 19:16:12;;;;;;;8.50;1.70;;;11.60;79.90;;;;;;4987029;28;20026;-67
2022/05/17 19:18:58;;;;;;;7.88;1.80;;;11.70;80.30;;;;;;4977582;28;20118;-67
2022/05/17 19:21:36;;;;;;;8.43;1.90;;;11.60;80.20;;;;;;4982632;28;20038;-67
2022/05/17 19:24:05;;;;;;;7.25;1.80;;;11.70;80.10;;;;;;4990179;28;20480;-68
2022/05/17 19:26:34;;;;;;;6.25;2.10;;;11.70;80.20;;;;;;4994287;28;20030;-67
2022/05/17 19:29:01;;;;;;;5.57;1.70;;;11.70;80.10;;;;;;4994387;28;20043;-68
2022/05/17 19:31:30;;;;;;;10.25;2.30;;;11.70;80.10;;;;;;4976664;28;20026;-68
2022/05/17 19:33:59;;;;;;;5.47;1.88;;;11.60;79.90;;;;;;4977729;28;20030;-67
2022/05/17 19:39:24;;;;;;;6.95;1.77;;;11.60;80.20;;;;;;4996145;28;20037;-68
2022/05/17 19:39:26;;;;;;;2.70;1.35;;;11.60;80.50;;;;;;4990453;28;20041;-67
2022/05/17 19:42:01;;;;;;;6.20;1.90;;;11.50;80.60;;;;;;4975255;28;20077;-67
2022/05/17 19:44:29;;;;;;;5.32;1.70;;;11.50;80.30;;;;;;4975695;28;20030;-67
2022/05/17 19:46:57;;;;;;;11.13;2.03;;;11.50;80.60;;;;;;4969236;28;20106;-67
2022/05/17 19:49:25;;;;;;;3.47;1.50;;;11.50;80.70;;;;;;4975295;28;20033;-68
2022/05/17 19:51:53;;;;;;;4.40;1.50;;;11.40;80.90;;;;;;4984601;28;20117;-68
2022/05/17 19:54:24;;;;;;;9.32;2.00;;;11.40;81.00;;;;;;4993138;28;20026;-68
2022/05/17 19:56:52;;;;;;;5.40;1.70;;;11.40;80.80;;;;;;4994219;28;20362;-68